createdAt,value
2018-03-06T00:00:33.864Z,28.17
2018-03-06T00:03:02.231Z,30.60
2018-03-06T00:05:29.598Z,26.73
2018-03-06T00:07:56.967Z,30.20
2018-03-06T00:10:25.260Z,25.47
2018-03-06T00:12:53.551Z,29.40
2018-03-06T00:15:21.675Z,32.90
2018-03-06T00:17:49.040Z,25.83
2018-03-06T00:20:16.470Z,27.67
2018-03-06T00:22:43.952Z,28.77
2018-03-06T00:25:12.279Z,28.43
2018-03-06T00:27:40.406Z,24.80
2018-03-06T00:30:08.603Z,31.20
2018-03-06T00:32:36.883Z,31.07
2018-03-06T00:35:05.003Z,31.23
2018-03-06T00:37:33.128Z,25.53
2018-03-06T00:40:00.783Z,27.40
2018-03-06T00:42:28.163Z,31.60
2018-03-06T00:44:55.519Z,26.73
2018-03-06T00:47:23.177Z,25.30
2018-03-06T00:49:51.292Z,28.00
2018-03-06T00:52:18.678Z,25.77
2018-03-06T00:54:46.920Z,26.80
2018-03-06T00:57:14.520Z,30.30
2018-03-06T00:59:42.788Z,30.93
2018-03-06T01:02:10.920Z,30.00
2018-03-06T01:04:38.671Z,27.57
2018-03-06T01:07:06.893Z,27.30
2018-03-06T01:09:35.195Z,31.67
2018-03-06T01:12:03.275Z,28.93
2018-03-06T01:14:30.912Z,29.40
2018-03-06T01:16:59.183Z,24.97
2018-03-06T01:19:27.310Z,30.57
2018-03-06T01:21:56.111Z,29.07
2018-03-06T01:24:23.821Z,29.77
2018-03-06T01:26:52.071Z,28.73
2018-03-06T01:29:20.236Z,31.60
2018-03-06T01:31:48.439Z,30.27
2018-03-06T01:34:16.576Z,32.10
2018-03-06T01:36:43.940Z,34.03
2018-03-06T01:39:12.204Z,29.13
2018-03-06T01:41:39.634Z,31.90
2018-03-06T01:44:07.892Z,33.90
2018-03-06T01:46:35.272Z,34.43
2018-03-06T01:49:02.639Z,28.13
2018-03-06T01:51:36.996Z,33.80
2018-03-06T01:54:05.063Z,35.60
2018-03-06T01:56:33.400Z,30.73
2018-03-06T01:59:00.752Z,29.37
2018-03-06T02:01:29.056Z,34.50
2018-03-06T02:03:57.200Z,35.27
2018-03-06T02:06:25.539Z,34.40
2018-03-06T02:08:52.959Z,30.07
2018-03-06T02:11:20.504Z,32.23
2018-03-06T02:13:48.529Z,32.93
2018-03-06T02:16:15.860Z,38.53
2018-03-06T02:18:43.224Z,34.67
2018-03-06T02:21:11.335Z,33.33
2018-03-06T02:23:39.660Z,35.47
2018-03-06T02:26:07.751Z,35.67
2018-03-06T02:28:35.864Z,32.67
2018-03-06T02:31:04.163Z,32.80
2018-03-06T02:33:31.549Z,29.63
2018-03-06T02:35:59.803Z,31.07
2018-03-06T02:38:27.879Z,34.87
2018-03-06T02:40:56.220Z,31.83
2018-03-06T02:43:23.547Z,38.83
2018-03-06T02:45:51.843Z,34.90
2018-03-06T02:48:20.999Z,32.93
2018-03-06T02:50:49.296Z,39.03
2018-03-06T02:53:16.648Z,37.23
2018-03-06T02:55:44.748Z,37.77
2018-03-06T02:58:12.116Z,35.33
2018-03-06T03:00:40.236Z,37.20
2018-03-06T03:03:08.537Z,33.47
2018-03-06T03:05:36.713Z,39.07
2018-03-06T03:08:04.116Z,35.10
2018-03-06T03:10:32.379Z,32.07
2018-03-06T03:12:59.723Z,39.57
2018-03-06T03:15:28.000Z,39.47
2018-03-06T03:17:56.299Z,34.03
2018-03-06T03:20:24.574Z,34.93
2018-03-06T03:22:51.974Z,37.10
2018-03-06T03:25:19.397Z,33.83
2018-03-06T03:27:47.509Z,36.00
2018-03-06T03:30:15.579Z,36.83
2018-03-06T03:32:43.659Z,39.90
2018-03-06T03:35:11.680Z,35.20
2018-03-06T03:37:39.976Z,37.83
2018-03-06T03:40:08.244Z,39.70
2018-03-06T03:42:36.944Z,36.07
2018-03-06T03:45:04.428Z,39.13
2018-03-06T03:47:32.770Z,45.20
2018-03-06T03:50:00.141Z,45.17
2018-03-06T03:52:28.337Z,37.33
2018-03-06T03:54:56.727Z,39.63
2018-03-06T03:57:24.099Z,38.60
2018-03-06T03:59:52.353Z,41.77
2018-03-06T04:02:19.875Z,41.97
2018-03-06T04:04:47.273Z,40.13
2018-03-06T04:07:14.713Z,37.47
2018-03-06T04:09:43.009Z,36.37
2018-03-06T04:12:11.108Z,36.13
2018-03-06T04:14:39.419Z,35.10
2018-03-06T04:17:09.341Z,36.67
2018-03-06T04:19:36.711Z,42.60
2018-03-06T04:22:04.127Z,37.40
2018-03-06T04:24:32.320Z,41.30
2018-03-06T04:26:59.701Z,38.50
2018-03-06T04:29:27.839Z,41.67
2018-03-06T04:31:55.943Z,40.37
2018-03-06T04:34:24.295Z,36.63
2018-03-06T04:36:52.627Z,41.23
2018-03-06T04:39:20.692Z,38.30
2018-03-06T04:41:48.086Z,38.93
2018-03-06T04:44:15.434Z,35.60
2018-03-06T04:46:43.557Z,40.20
2018-03-06T04:49:11.901Z,40.70
2018-03-06T04:51:39.304Z,40.17
2018-03-06T04:54:07.599Z,39.83
2018-03-06T04:56:35.748Z,39.33
2018-03-06T04:59:04.068Z,40.53
2018-03-06T05:01:32.211Z,39.43
2018-03-06T05:03:59.651Z,40.73
2018-03-06T05:06:27.764Z,38.60
2018-03-06T05:08:56.075Z,40.73
2018-03-06T05:11:23.433Z,44.27
2018-03-06T05:13:51.882Z,40.47
2018-03-06T05:16:20.124Z,37.77
2018-03-06T05:18:48.465Z,39.17
2018-03-06T05:21:16.508Z,40.50
2018-03-06T05:23:44.633Z,40.50
2018-03-06T05:26:12.935Z,38.97
2018-03-06T05:28:40.263Z,37.53
2018-03-06T05:31:08.567Z,40.63
2018-03-06T05:33:36.073Z,38.80
2018-03-06T05:36:03.480Z,40.70
2018-03-06T05:38:31.600Z,39.13
2018-03-06T05:40:58.983Z,40.73
2018-03-06T05:43:27.101Z,40.47
2018-03-06T05:45:54.500Z,39.27
2018-03-06T05:48:22.653Z,39.43
2018-03-06T05:50:50.104Z,42.67
2018-03-06T05:53:18.715Z,39.43
2018-03-06T05:55:46.900Z,36.87
2018-03-06T05:58:15.191Z,36.80
2018-03-06T06:00:42.819Z,38.23
2018-03-06T06:03:11.079Z,37.80
2018-03-06T06:05:39.402Z,37.10
2018-03-06T06:08:08.367Z,39.23
2018-03-06T06:10:36.640Z,38.47
2018-03-06T06:13:04.917Z,41.10
2018-03-06T06:15:33.627Z,42.07
2018-03-06T06:18:02.082Z,42.80
2018-03-06T06:20:30.694Z,40.80
2018-03-06T06:22:58.036Z,43.03
2018-03-06T06:25:26.332Z,41.63
2018-03-06T06:27:54.574Z,42.07
2018-03-06T06:30:22.673Z,37.03
2018-03-06T06:32:50.447Z,40.77
2018-03-06T06:35:18.551Z,39.90
2018-03-06T06:37:46.049Z,40.17
2018-03-06T06:40:14.343Z,42.93
2018-03-06T06:42:42.529Z,40.23
2018-03-06T06:45:10.748Z,40.13
2018-03-06T06:47:38.121Z,40.17
2018-03-06T06:50:05.429Z,40.63
2018-03-06T06:52:32.790Z,38.60
2018-03-06T06:55:00.913Z,40.00
2018-03-06T06:57:29.236Z,40.00
2018-03-06T06:59:57.345Z,38.43
2018-03-06T07:02:25.486Z,41.50
2018-03-06T07:04:52.839Z,39.87
2018-03-06T07:07:21.067Z,37.03
2018-03-06T07:09:49.168Z,37.47
2018-03-06T07:12:16.544Z,38.90
2018-03-06T07:14:44.093Z,41.57
2018-03-06T07:17:11.424Z,40.10
2018-03-06T07:19:38.772Z,41.23
2018-03-06T07:22:07.038Z,40.60
2018-03-06T07:24:35.204Z,45.50
2018-03-06T07:27:02.556Z,45.40
2018-03-06T07:29:30.646Z,40.73
2018-03-06T07:31:58.923Z,39.57
2018-03-06T07:34:27.045Z,37.03
2018-03-06T07:36:55.110Z,44.50
2018-03-06T07:39:23.388Z,46.27
2018-03-06T07:41:50.844Z,43.43
2018-03-06T07:44:19.079Z,45.13
2018-03-06T07:46:47.152Z,46.53
2018-03-06T07:49:15.261Z,46.97
2018-03-06T07:51:42.606Z,45.73
2018-03-06T07:54:10.762Z,46.50
2018-03-06T07:56:38.105Z,46.10
2018-03-06T07:59:05.480Z,46.40
2018-03-06T08:01:33.076Z,45.80
2018-03-06T08:04:01.369Z,46.80
2018-03-06T08:06:29.491Z,45.93
2018-03-06T08:08:57.771Z,43.27
2018-03-06T08:11:25.983Z,44.20
2018-03-06T08:13:54.239Z,44.17
2018-03-06T08:16:21.599Z,45.83
2018-03-06T08:18:48.929Z,42.87
2018-03-06T08:21:17.027Z,43.37
2018-03-06T08:23:44.395Z,43.50
2018-03-06T08:26:12.754Z,44.37
2018-03-06T08:28:41.043Z,45.93
2018-03-06T08:31:08.453Z,43.37
2018-03-06T08:33:36.540Z,44.37
2018-03-06T08:36:04.880Z,42.73
2018-03-06T08:38:33.028Z,43.17
2018-03-06T08:41:00.465Z,44.37
2018-03-06T08:43:28.763Z,44.07
2018-03-06T08:45:56.132Z,43.23
2018-03-06T08:48:24.220Z,43.53
2018-03-06T08:50:52.504Z,44.90
2018-03-06T08:53:19.881Z,45.03
2018-03-06T08:55:47.269Z,44.67
2018-03-06T08:58:14.614Z,42.13
2018-03-06T09:00:42.985Z,45.43
2018-03-06T09:03:10.465Z,44.13
2018-03-06T09:05:38.759Z,44.67
2018-03-06T09:08:07.028Z,42.37
2018-03-06T09:10:35.128Z,43.73
2018-03-06T09:13:03.232Z,45.63
2018-03-06T09:15:30.590Z,42.40
2018-03-06T09:17:58.208Z,37.57
2018-03-06T09:20:25.603Z,38.20
2018-03-06T09:22:53.939Z,47.77
2018-03-06T09:25:22.097Z,49.20
2018-03-06T09:27:49.428Z,45.67
2018-03-06T09:30:17.736Z,47.23
2018-03-06T09:32:45.104Z,43.30
2018-03-06T09:35:13.468Z,48.03
2018-03-06T09:37:41.762Z,48.00
2018-03-06T09:40:09.155Z,47.33
2018-03-06T09:42:36.502Z,45.87
2018-03-06T09:45:03.880Z,40.23
2018-03-06T09:47:31.996Z,47.10
2018-03-06T09:50:00.097Z,48.90
2018-03-06T09:52:27.507Z,48.30
2018-03-06T09:54:54.839Z,47.00
2018-03-06T09:57:22.956Z,48.90
2018-03-06T09:59:50.311Z,47.37
2018-03-06T10:02:18.518Z,46.30
2018-03-06T10:04:45.860Z,45.67
2018-03-06T10:07:13.244Z,44.80
2018-03-06T10:09:41.579Z,47.03
2018-03-06T10:12:09.667Z,48.10
2018-03-06T10:14:37.028Z,46.13
2018-03-06T10:17:05.295Z,43.53
2018-03-06T10:19:32.655Z,46.23
2018-03-06T10:22:01.024Z,48.27
2018-03-06T10:24:28.446Z,47.67
2018-03-06T10:26:56.816Z,50.77
2018-03-06T10:29:24.280Z,46.83
2018-03-06T10:31:51.625Z,48.30
2018-03-06T10:34:19.732Z,47.87
2018-03-06T10:36:47.091Z,49.77
2018-03-06T10:39:14.426Z,46.87
2018-03-06T10:41:42.532Z,46.30
2018-03-06T10:44:09.939Z,46.10
2018-03-06T10:46:38.104Z,47.53
2018-03-06T10:49:06.517Z,45.87
2018-03-06T10:51:33.974Z,46.83
2018-03-06T10:54:02.049Z,46.73
2018-03-06T10:56:29.395Z,47.80
2018-03-06T10:58:57.782Z,46.93
2018-03-06T11:01:25.151Z,42.63
2018-03-06T11:03:53.247Z,45.53
2018-03-06T11:06:21.328Z,43.73
2018-03-06T11:08:49.436Z,40.60
2018-03-06T11:11:16.801Z,45.27
2018-03-06T11:13:44.919Z,43.07
2018-03-06T11:16:12.285Z,34.53
2018-03-06T11:18:40.382Z,33.97
2018-03-06T11:21:08.650Z,32.60
2018-03-06T11:23:36.009Z,35.70
2018-03-06T11:26:04.263Z,33.13
2018-03-06T11:28:31.667Z,34.57
2018-03-06T11:30:59.768Z,33.73
2018-03-06T11:33:27.889Z,34.30
2018-03-06T11:35:56.192Z,32.43
2018-03-06T11:38:23.566Z,34.33
2018-03-06T11:40:51.001Z,36.07
2018-03-06T11:43:18.369Z,35.50
2018-03-06T11:45:46.679Z,35.70
2018-03-06T11:48:14.017Z,35.60
2018-03-06T11:50:42.280Z,33.47
2018-03-06T11:53:10.623Z,32.23
2018-03-06T11:55:38.042Z,35.07
2018-03-06T11:58:06.320Z,34.30
2018-03-06T12:00:34.419Z,33.57
2018-03-06T12:03:01.815Z,30.13
2018-03-06T12:05:30.087Z,31.80
2018-03-06T12:07:58.213Z,30.60
2018-03-06T12:10:26.512Z,30.10
2018-03-06T12:12:54.744Z,29.23
2018-03-06T12:15:22.209Z,28.60
2018-03-06T12:17:50.359Z,29.87
2018-03-06T12:20:18.474Z,28.03
2018-03-06T12:22:45.864Z,26.93
2018-03-06T12:25:14.195Z,30.47
2018-03-06T12:27:41.559Z,30.03
2018-03-06T12:30:09.680Z,29.10
2018-03-06T12:32:37.949Z,30.13
2018-03-06T12:35:05.312Z,29.97
2018-03-06T12:37:33.642Z,30.07
2018-03-06T12:40:00.960Z,28.10
2018-03-06T12:42:29.115Z,27.20
2018-03-06T12:44:56.484Z,29.83
2018-03-06T12:47:24.594Z,29.47
2018-03-06T12:49:52.889Z,30.07
2018-03-06T12:52:20.349Z,30.83
2018-03-06T12:54:48.659Z,30.20
2018-03-06T12:57:16.753Z,30.03
2018-03-06T12:59:44.830Z,30.67
2018-03-06T13:02:12.209Z,28.93
2018-03-06T13:04:39.664Z,27.37
2018-03-06T13:07:07.012Z,31.23
2018-03-06T13:09:35.352Z,29.10
2018-03-06T13:12:03.428Z,29.53
2018-03-06T13:14:30.779Z,29.83
2018-03-06T13:16:58.211Z,30.93
2018-03-06T13:19:25.580Z,31.87
2018-03-06T13:21:53.029Z,32.23
2018-03-06T13:24:21.372Z,27.40
2018-03-06T13:26:49.649Z,28.07
2018-03-06T13:29:17.783Z,28.93
2018-03-06T13:31:45.128Z,31.30
2018-03-06T13:34:12.529Z,30.87
2018-03-06T13:36:40.815Z,24.97
2018-03-06T13:39:08.292Z,31.53
2018-03-06T13:41:35.618Z,27.93
2018-03-06T13:44:03.897Z,25.23
2018-03-06T13:46:32.168Z,28.03
2018-03-06T13:48:59.504Z,31.27
2018-03-06T13:51:27.645Z,28.37
2018-03-06T13:53:55.018Z,27.57
2018-03-06T13:56:22.536Z,31.30
2018-03-06T13:58:51.140Z,30.37
2018-03-06T14:01:19.268Z,26.33
2018-03-06T14:03:47.649Z,29.83
2018-03-06T14:06:15.289Z,27.57
2018-03-06T14:08:42.700Z,25.03
2018-03-06T14:11:10.788Z,29.47
2018-03-06T14:13:38.905Z,27.27
2018-03-06T14:16:06.338Z,31.07
2018-03-06T14:18:33.718Z,30.07
2018-03-06T14:21:01.968Z,26.50
2018-03-06T14:23:29.347Z,27.03
2018-03-06T14:25:56.765Z,28.30
2018-03-06T14:28:24.141Z,29.33
2018-03-06T14:30:51.489Z,27.30
2018-03-06T14:33:18.893Z,26.07
2018-03-06T14:35:47.016Z,26.90
2018-03-06T14:38:14.459Z,29.20
2018-03-06T14:40:42.571Z,25.30
2018-03-06T14:43:10.684Z,30.77
2018-03-06T14:45:38.813Z,22.53
2018-03-06T14:48:06.176Z,27.90
2018-03-06T14:50:34.490Z,30.23
2018-03-06T14:53:02.781Z,27.43
2018-03-06T14:55:30.148Z,30.00
2018-03-06T14:57:58.307Z,28.80
2018-03-06T15:00:25.843Z,29.20
2018-03-06T15:02:54.193Z,30.03
2018-03-06T15:05:21.575Z,27.73
2018-03-06T15:07:49.080Z,27.43
2018-03-06T15:10:17.402Z,27.30
2018-03-06T15:12:44.728Z,29.73
2018-03-06T15:15:12.857Z,25.27
2018-03-06T15:17:41.155Z,24.77
2018-03-06T15:20:08.559Z,28.07
2018-03-06T15:22:37.582Z,26.10
2018-03-06T15:25:04.973Z,25.70
2018-03-06T15:27:32.314Z,25.70
2018-03-06T15:29:59.859Z,22.33
2018-03-06T15:32:27.248Z,25.10
2018-03-06T15:34:54.652Z,26.63
2018-03-06T15:37:22.165Z,24.33
2018-03-06T15:39:49.621Z,26.70
2018-03-06T15:42:32.736Z,24.60
2018-03-06T15:45:04.760Z,23.07
2018-03-06T15:47:34.776Z,23.57
2018-03-06T15:50:02.310Z,21.77
2018-03-06T15:52:39.996Z,20.83
2018-03-06T15:55:12.992Z,22.53
2018-03-06T15:57:51.685Z,21.43
2018-03-06T16:00:21.364Z,23.40
2018-03-06T16:02:56.260Z,22.50
2018-03-06T16:05:28.947Z,21.03
2018-03-06T16:07:58.931Z,19.40
2018-03-06T16:10:26.393Z,22.10
2018-03-06T16:12:56.339Z,19.07
2018-03-06T16:15:28.305Z,21.83
2018-03-06T16:17:56.037Z,21.50
2018-03-06T16:20:25.279Z,21.60
2018-03-06T16:22:55.598Z,22.40
2018-03-06T16:25:23.012Z,22.07
2018-03-06T16:27:55.110Z,20.70
2018-03-06T16:30:23.493Z,21.63
2018-03-06T16:32:51.675Z,20.60
2018-03-06T16:35:25.982Z,20.60
2018-03-06T16:37:58.194Z,20.67
2018-03-06T16:40:25.690Z,17.47
2018-03-06T16:42:55.739Z,20.53
2018-03-06T16:45:25.065Z,21.97
2018-03-06T16:47:55.067Z,17.50
2018-03-06T16:50:25.149Z,19.07
2018-03-06T16:52:54.653Z,20.50
2018-03-06T16:55:22.873Z,21.70
2018-03-06T16:57:55.252Z,21.50
2018-03-06T17:00:24.623Z,21.83
2018-03-06T17:02:52.873Z,21.30
2018-03-06T17:05:20.365Z,21.37
2018-03-06T17:07:48.913Z,21.87
2018-03-06T17:10:18.289Z,21.70
2018-03-06T17:12:45.887Z,21.43
2018-03-06T17:15:13.297Z,21.40
2018-03-06T17:17:40.909Z,20.97
2018-03-06T17:20:09.227Z,23.20
2018-03-06T17:22:40.544Z,19.90
2018-03-06T17:25:08.906Z,21.37
2018-03-06T17:27:38.539Z,20.77
2018-03-06T17:30:10.825Z,23.10
2018-03-06T17:32:38.285Z,19.40
2018-03-06T17:35:05.782Z,16.90
2018-03-06T17:37:34.285Z,21.40
2018-03-06T17:40:06.069Z,20.20
2018-03-06T17:42:33.741Z,17.80
2018-03-06T17:45:04.178Z,18.90
2018-03-06T17:47:31.649Z,24.83
2018-03-06T17:52:34.007Z,20.80
2018-03-06T17:55:01.417Z,20.00
2018-03-06T17:57:33.293Z,17.63
2018-03-06T18:00:04.367Z,17.47
2018-03-06T18:02:35.588Z,21.30
2018-03-06T18:05:04.032Z,20.13
2018-03-06T18:07:33.354Z,21.17
2018-03-06T18:10:07.274Z,19.43
2018-03-06T18:12:37.659Z,19.53
2018-03-06T18:15:12.942Z,19.83
2018-03-06T18:17:45.280Z,16.87
2018-03-06T18:20:15.592Z,18.67
2018-03-06T18:22:45.179Z,20.80
2018-03-06T18:25:15.452Z,18.73
2018-03-06T18:27:43.308Z,18.93
2018-03-06T18:30:11.771Z,15.83
2018-03-06T18:32:44.464Z,19.73
2018-03-06T18:35:14.969Z,18.10
2018-03-06T18:37:48.060Z,19.80
2018-03-06T18:40:18.010Z,19.13
2018-03-06T18:42:54.005Z,19.27
2018-03-06T18:45:23.013Z,18.37
2018-03-06T18:47:53.710Z,14.87
2018-03-06T18:53:33.543Z,19.43
2018-03-06T18:56:02.008Z,16.47
2018-03-06T18:58:30.337Z,16.30
2018-03-06T19:01:09.840Z,18.40
2018-03-06T19:03:56.286Z,18.73
2018-03-06T19:06:37.254Z,16.97
2018-03-06T19:09:12.854Z,17.97
2018-03-06T19:11:43.080Z,17.00
2018-03-06T19:14:11.544Z,17.60
2018-03-06T19:16:40.821Z,16.17
2018-03-06T19:19:08.669Z,18.50
2018-03-06T19:21:36.857Z,13.63
2018-03-06T19:24:09.329Z,15.77
2018-03-06T19:26:38.902Z,17.53
2018-03-06T19:29:06.372Z,17.20
2018-03-06T19:31:35.650Z,17.60
2018-03-06T19:34:04.184Z,17.33
2018-03-06T19:36:34.250Z,17.53
2018-03-06T19:39:02.657Z,17.47
2018-03-06T19:41:30.827Z,17.20
2018-03-06T19:44:00.258Z,16.43
2018-03-06T19:46:27.688Z,13.77
2018-03-06T19:49:01.907Z,16.00
2018-03-06T19:51:29.343Z,17.43
2018-03-06T19:53:58.712Z,16.43
2018-03-06T19:56:28.097Z,18.13
2018-03-06T19:58:57.961Z,17.07
2018-03-06T20:01:28.953Z,15.17
2018-03-06T20:03:58.242Z,16.90
2018-03-06T20:06:34.384Z,15.97
2018-03-06T20:09:03.643Z,13.00
2018-03-06T20:11:32.885Z,15.80
2018-03-06T20:14:03.864Z,17.30
2018-03-06T20:16:36.991Z,16.30
2018-03-06T20:19:11.224Z,16.13
2018-03-06T20:21:40.423Z,17.03
2018-03-06T20:24:13.908Z,15.93
2018-03-06T20:26:46.077Z,13.50
2018-03-06T20:29:17.070Z,15.43
2018-03-06T20:31:51.149Z,15.73
2018-03-06T20:34:22.960Z,13.93
2018-03-06T20:36:52.173Z,17.10
2018-03-06T20:39:30.128Z,15.10
2018-03-06T20:42:04.738Z,16.07
2018-03-06T20:44:38.104Z,13.73
2018-03-06T20:47:13.459Z,15.07
2018-03-06T20:49:43.877Z,13.43
2018-03-06T20:52:15.071Z,16.77
2018-03-06T20:54:51.298Z,16.40
2018-03-06T20:57:20.751Z,12.87
2018-03-06T20:59:50.979Z,17.33
2018-03-06T21:02:21.919Z,14.80
2018-03-06T21:04:50.052Z,13.67
2018-03-06T21:07:17.448Z,16.53
2018-03-06T21:09:46.858Z,16.80
2018-03-06T21:12:14.351Z,16.63
2018-03-06T21:14:41.755Z,16.37
2018-03-06T21:17:09.867Z,13.73
2018-03-06T21:19:37.442Z,16.73
2018-03-06T21:22:06.425Z,16.70
2018-03-06T21:24:33.869Z,14.27
2018-03-06T21:27:04.036Z,17.23
2018-03-06T21:29:31.565Z,17.13
2018-03-06T21:31:59.724Z,17.00
2018-03-06T21:34:28.118Z,18.03
2018-03-06T21:37:06.972Z,17.23
2018-03-06T21:39:35.370Z,17.87
2018-03-06T21:42:15.188Z,18.13
2018-03-06T21:44:45.940Z,18.93
2018-03-06T21:47:15.008Z,16.90
2018-03-06T21:49:45.611Z,20.10
2018-03-06T21:52:14.060Z,16.73
2018-03-06T21:54:42.330Z,15.63
2018-03-06T21:57:09.786Z,17.87
2018-03-06T21:59:38.741Z,19.33
2018-03-06T22:02:07.839Z,20.13
2018-03-06T22:04:38.806Z,19.23
2018-03-06T22:07:06.228Z,20.83
2018-03-06T22:09:39.299Z,19.60
2018-03-06T22:12:09.508Z,18.70
2018-03-06T22:14:36.904Z,17.13
2018-03-06T22:17:05.056Z,18.90
2018-03-06T22:19:34.283Z,14.63
2018-03-06T22:22:02.692Z,18.97
2018-03-06T22:24:37.573Z,19.50
2018-03-06T22:27:05.779Z,19.83
2018-03-06T22:29:34.059Z,18.17
2018-03-06T22:32:01.488Z,15.87
2018-03-06T22:34:33.357Z,15.63
2018-03-06T22:37:01.537Z,13.70
2018-03-06T22:39:31.768Z,13.73
2018-03-06T22:42:04.901Z,14.30
2018-03-06T22:44:36.919Z,14.53
2018-03-06T22:47:08.846Z,15.23
2018-03-06T22:49:39.753Z,13.73
2018-03-06T22:52:07.112Z,14.07
2018-03-06T22:54:35.251Z,14.13
2018-03-06T22:57:02.687Z,14.10
2018-03-06T22:59:30.780Z,15.03
2018-03-06T23:01:58.881Z,15.30
2018-03-06T23:04:27.021Z,15.30
2018-03-06T23:06:54.329Z,15.23
2018-03-06T23:09:21.737Z,15.27
2018-03-06T23:11:49.123Z,14.47
2018-03-06T23:14:17.411Z,14.77
2018-03-06T23:16:44.800Z,15.30
2018-03-06T23:19:13.093Z,14.53
2018-03-06T23:21:40.445Z,14.67
2018-03-06T23:24:07.808Z,15.20
2018-03-06T23:26:36.124Z,13.70
2018-03-06T23:29:04.394Z,13.17
2018-03-06T23:31:32.711Z,14.33
2018-03-06T23:34:01.809Z,14.13
2018-03-06T23:36:29.330Z,13.80
2018-03-06T23:38:56.730Z,12.90
2018-03-06T23:41:24.842Z,13.07
2018-03-06T23:43:52.490Z,11.87
2018-03-06T23:46:20.841Z,12.77
2018-03-06T23:48:48.247Z,12.57
2018-03-06T23:51:15.803Z,12.27
2018-03-06T23:53:44.093Z,11.63
2018-03-06T23:56:12.429Z,11.07
2018-03-06T23:58:40.070Z,10.67
